Time;durP1;ratioP1;P1;durP2;ratioP2;P2;SDS_P1;SDS_P2;PMS_P1;PMS_P2;Temp;Humidity;BMP_temperature;BMP_pressure;BME280_temperature;BME280_humidity;BME280_pressure;Samples;Min_cycle;Max_cycle;Signal;HPM_P1;HPM_P2
2023/01/19 00:00:24;;;;;;;62.73;34.27;;;;;;;4.93;68.34;98848.56;5053828;27;101910;-87
2023/01/19 00:02:49;;;;;;;65.57;34.40;;;;;;;4.97;68.25;98859.72;5082622;27;97339;-84
2023/01/19 00:05:15;;;;;;;58.83;32.80;;;;;;;4.90;68.11;98850.44;5049848;27;96780;-87
2023/01/19 00:07:41;;;;;;;59.23;32.67;;;;;;;4.98;68.25;98871.84;5037358;27;97085;-87
2023/01/19 00:10:07;;;;;;;59.27;33.77;;;;;;;5.01;67.98;98876.09;5070340;27;97024;-87
2023/01/19 00:12:33;;;;;;;59.07;33.60;;;;;;;4.98;68.23;98877.88;5047183;27;100539;-86
2023/01/19 00:14:58;;;;;;;56.67;33.43;;;;;;;5.02;68.40;98878.63;5049998;27;97137;-84
2023/01/19 00:17:24;;;;;;;57.40;33.23;;;;;;;5.03;68.11;98885.50;5056149;27;97340;-88
2023/01/19 00:19:50;;;;;;;57.57;33.67;;;;;;;5.05;68.26;98885.47;5056381;27;101169;-85
2023/01/19 00:22:15;;;;;;;57.30;33.53;;;;;;;5.03;68.18;98890.69;5063986;27;98270;-88
2023/01/19 00:24:41;;;;;;;60.07;33.77;;;;;;;5.01;67.77;98884.72;5053892;27;96952;-88
2023/01/19 00:27:06;;;;;;;60.67;34.40;;;;;;;5.05;67.86;98901.06;5060609;27;97421;-88
2023/01/19 00:29:33;;;;;;;57.70;32.57;;;;;;;5.00;67.91;98903.81;5042592;27;101911;-87
2023/01/19 00:32:03;;;;;;;59.73;33.93;;;;;;;4.90;68.02;98892.03;5055702;27;100902;-87
2023/01/19 00:34:35;;;;;;;60.57;33.77;;;;;;;5.01;67.78;98910.75;5035929;27;96947;-87
2023/01/19 00:37:04;;;;;;;;;;;;;;;4.96;67.84;98907.44;5049506;27;97697;-85
2023/01/19 00:39:30;;;;;;;55.70;32.43;;;;;;;4.96;67.96;98907.44;5041282;27;101643;-87
2023/01/19 00:44:40;;;;;;;60.47;33.83;;;;;;;5.00;68.11;98906.41;5057704;27;97196;-86
2023/01/19 00:47:05;;;;;;;59.40;33.07;;;;;;;4.91;68.12;98899.78;5071940;27;97261;-87
2023/01/19 00:49:31;;;;;;;61.73;33.30;;;;;;;4.97;68.10;98915.19;5035210;27;100850;-86
2023/01/19 00:51:56;;;;;;;55.87;32.57;;;;;;;5.03;67.90;98923.66;5062595;27;101292;-86
2023/01/19 00:54:22;;;;;;;59.40;33.80;;;;;;;5.01;67.70;98925.50;5078132;27;96787;-85
2023/01/19 00:56:47;;;;;;;57.00;32.13;;;;;;;4.91;67.97;98912.78;5075793;27;96715;-87
2023/01/19 00:59:13;;;;;;;61.43;34.13;;;;;;;5.03;67.52;98940.13;5075371;27;98092;-86
2023/01/19 01:01:38;;;;;;;63.73;33.93;;;;;;;4.78;67.58;98898.50;5040654;27;101811;-86
2023/01/19 01:04:04;;;;;;;53.90;31.00;;;;;;;4.83;67.27;98914.81;5059258;27;97210;-86
2023/01/19 01:06:29;;;;;;;53.47;31.73;;;;;;;4.93;67.68;98925.75;5056159;27;97698;-86
2023/01/19 01:08:55;;;;;;;56.87;31.03;;;;;;;4.97;67.35;98946.41;5040471;27;101207;-88
2023/01/19 01:11:21;;;;;;;55.77;30.00;;;;;;;4.98;67.35;98949.84;5055999;27;101619;-85
2023/01/19 01:13:46;;;;;;;51.83;29.40;;;;;;;5.06;67.32;98962.59;5066096;27;97453;-87
2023/01/19 01:16:15;;;;;;;49.90;27.20;;;;;;;5.07;67.18;98964.31;5071022;27;97026;-87
2023/01/19 01:18:41;;;;;;;46.43;26.50;;;;;;;5.00;67.13;98950.63;5053589;27;100097;-87
2023/01/19 01:21:07;;;;;;;47.13;25.83;;;;;;;4.98;66.88;98952.44;5061055;27;100276;-88
2023/01/19 01:23:33;;;;;;;42.37;24.23;;;;;;;5.02;67.06;98964.44;5078373;27;96791;-87
2023/01/19 01:25:59;;;;;;;35.57;21.37;;;;;;;5.03;66.56;98963.53;5043331;27;96898;-86
2023/01/19 01:28:24;;;;;;;34.53;19.80;;;;;;;4.91;66.54;98946.59;5058802;27;98403;-85
2023/01/19 01:30:54;;;;;;;30.97;18.83;;;;;;;5.01;66.31;98969.72;5059452;27;98393;-83
2023/01/19 01:33:20;;;;;;;24.33;15.60;;;;;;;5.00;66.10;98974.03;5044821;27;97692;-87
2023/01/19 01:35:47;;;;;;;24.90;14.17;;;;;;;5.01;65.82;98975.75;5059957;27;96916;-87
2023/01/19 01:38:14;;;;;;;21.77;12.40;;;;;;;4.95;65.72;98975.97;5046652;27;101085;-88
2023/01/19 01:40:40;;;;;;;18.73;12.00;;;;;;;4.93;65.50;98980.34;5057276;27;97582;-86
2023/01/19 01:43:11;;;;;;;17.13;10.33;;;;;;;4.96;65.37;98983.69;5042075;27;97355;-88
2023/01/19 01:45:38;;;;;;;16.30;11.40;;;;;;;4.95;65.38;98975.97;5048445;27;97936;-87
2023/01/19 01:48:04;;;;;;;11.40;8.53;;;;;;;4.84;65.21;98960.69;5074665;27;98184;-87
2023/01/19 01:50:33;;;;;;;12.90;8.20;;;;;;;4.95;64.80;98978.56;5076283;27;99646;-87
2023/01/19 01:53:03;;;;;;;9.43;6.97;;;;;;;4.95;64.96;98983.75;5040940;27;97058;-85
2023/01/19 01:55:30;;;;;;;9.63;6.47;;;;;;;4.91;64.80;98987.34;5066420;27;96785;-86
2023/01/19 01:58:00;;;;;;;7.40;4.93;;;;;;;4.80;64.49;98976.44;5044772;27;101443;-87
2023/01/19 02:00:26;;;;;;;8.87;5.47;;;;;;;4.78;64.49;98970.44;5057131;27;99923;-87
2023/01/19 02:02:53;;;;;;;7.80;5.63;;;;;;;4.92;64.30;98992.50;5066781;27;96824;-84
2023/01/19 02:05:33;;;;;;;7.07;4.83;;;;;;;4.91;64.52;98984.75;5058682;27;96826;-87
2023/01/19 02:13:42;;;;;;;6.07;4.70;;;;;;;4.70;63.77;98955.09;5059058;27;97336;-87
2023/01/19 02:16:09;;;;;;;4.97;4.43;;;;;;;4.83;64.06;98971.13;5055711;27;97387;-87
2023/01/19 02:18:35;;;;;;;5.10;4.40;;;;;;;4.90;63.96;98988.25;5053648;27;101885;-86
2023/01/19 02:21:17;;;;;;;5.30;4.20;;;;;;;4.89;64.06;98995.22;5067938;27;98654;-87
2023/01/19 02:23:48;;;;;;;5.60;4.47;;;;;;;4.78;64.00;98973.06;5080988;27;97241;-86
2023/01/19 02:26:25;;;;;;;5.50;4.30;;;;;;;4.90;63.71;99001.25;5056562;27;97533;-87
2023/01/19 02:28:56;;;;;;;5.83;4.33;;;;;;;4.88;64.16;99011.69;5051196;27;101365;-88
2023/01/19 02:31:22;;;;;;;6.33;4.43;;;;;;;4.82;63.37;98992.84;5057919;27;97907;-86
2023/01/19 02:33:48;;;;;;;4.63;3.73;;;;;;;4.89;63.33;99000.41;5056363;27;97193;-87
2023/01/19 02:36:15;;;;;;;4.73;3.70;;;;;;;4.89;63.38;99012.56;5056025;27;97273;-85
2023/01/19 02:38:41;;;;;;;4.27;3.33;;;;;;;4.88;63.40;99005.66;5080065;27;98387;-88
2023/01/19 02:41:11;;;;;;;4.73;3.80;;;;;;;4.80;62.80;98997.22;5079391;27;97139;-88
2023/01/19 02:43:37;;;;;;;5.57;3.27;;;;;;;4.86;63.37;99003.13;5040266;27;96738;-87
2023/01/19 02:46:02;;;;;;;3.93;2.93;;;;;;;4.87;63.12;99015.19;5038274;27;96916;-88
2023/01/19 02:48:28;;;;;;;7.67;4.00;;;;;;;4.84;63.15;99007.50;5063556;27;100189;-87
2023/01/19 02:51:02;;;;;;;4.80;3.53;;;;;;;4.85;63.45;99009.19;5068959;27;101419;-84
2023/01/19 02:53:31;;;;;;;4.37;3.57;;;;;;;4.84;62.85;99007.50;5042375;27;97324;-87
2023/01/19 02:56:18;;;;;;;4.63;3.60;;;;;;;4.83;63.29;99011.00;5073323;27;97214;-86
2023/01/19 02:58:51;;;;;;;5.57;3.70;;;;;;;4.84;63.45;98996.25;5073670;27;98101;-85
2023/01/19 03:01:40;;;;;;;6.40;3.80;;;;;;;4.83;63.00;99004.94;5049117;27;102323;-87
2023/01/19 03:04:33;;;;;;;4.40;3.03;;;;;;;4.83;63.36;98998.00;5068618;27;97366;-86
2023/01/19 03:07:18;;;;;;;4.27;3.43;;;;;;;4.83;62.76;98997.13;5071374;27;96780;-86
2023/01/19 03:10:07;;;;;;;5.10;3.50;;;;;;;4.81;62.95;99002.41;5054212;27;100391;-87
2023/01/19 03:12:43;;;;;;;4.70;3.43;;;;;;;4.80;62.79;98999.84;5078854;27;101351;-88
2023/01/19 03:15:38;;;;;;;4.27;3.00;;;;;;;4.81;62.89;99002.41;5064203;27;97169;-87
2023/01/19 03:18:08;;;;;;;5.70;3.10;;;;;;;4.72;62.81;98992.28;5065986;27;97503;-85
2023/01/19 03:20:33;;;;;;;4.83;3.20;;;;;;;4.79;62.88;99008.53;5055095;27;98150;-87
2023/01/19 03:23:03;;;;;;;3.90;2.90;;;;;;;4.73;63.02;98999.19;5053277;27;98960;-87
2023/01/19 03:25:31;;;;;;;4.43;3.40;;;;;;;4.81;63.18;99002.41;5052186;27;97348;-87
2023/01/19 03:27:57;;;;;;;4.60;3.40;;;;;;;4.80;62.99;99007.63;5037058;27;97299;-86
2023/01/19 03:30:28;;;;;;;3.40;3.10;;;;;;;4.78;63.04;99002.50;5052891;27;101221;-88
2023/01/19 03:32:58;;;;;;;4.97;3.67;;;;;;;4.76;63.12;98999.94;5071924;27;98286;-86
2023/01/19 03:35:27;;;;;;;5.00;3.67;;;;;;;4.81;63.14;99014.56;5054834;27;97386;-87
2023/01/19 03:37:56;;;;;;;6.13;4.13;;;;;;;4.81;63.11;99019.75;5079500;27;97308;-88
2023/01/19 03:40:26;;;;;;;5.43;3.83;;;;;;;4.71;63.38;98998.38;5068327;27;98490;-88
2023/01/19 03:42:52;;;;;;;4.40;3.60;;;;;;;4.79;63.31;99013.75;5049432;27;99749;-87
2023/01/19 03:45:18;;;;;;;4.47;3.73;;;;;;;4.76;63.66;99009.47;5053183;27;96725;-88
2023/01/19 03:47:44;;;;;;;5.43;4.03;;;;;;;4.76;63.42;99005.13;5038057;27;97652;-87
2023/01/19 03:50:13;;;;;;;5.03;3.57;;;;;;;4.71;63.19;98996.66;5067880;27;99110;-86
2023/01/19 03:52:39;;;;;;;5.20;4.13;;;;;;;4.72;63.33;99000.94;5074972;27;98735;-86
2023/01/19 03:55:05;;;;;;;4.83;4.00;;;;;;;4.76;63.69;99004.28;5052244;27;97079;-88
2023/01/19 03:57:31;;;;;;;5.90;4.43;;;;;;;4.68;63.66;98993.28;5036811;27;97278;-88
2023/01/19 03:59:57;;;;;;;5.57;4.70;;;;;;;4.74;63.73;99008.66;5052657;27;101072;-84
2023/01/19 04:02:23;;;;;;;5.77;4.40;;;;;;;4.76;64.12;99009.47;5066025;27;99044;-88
2023/01/19 04:04:49;;;;;;;6.37;4.77;;;;;;;4.72;63.96;99005.28;5069186;27;96799;-88
2023/01/19 04:07:14;;;;;;;6.63;4.73;;;;;;;4.73;64.10;99007.81;5040134;27;97587;-85
2023/01/19 04:09:40;;;;;;;7.63;5.50;;;;;;;4.76;64.26;99015.53;5051161;27;101445;-89
2023/01/19 04:12:06;;;;;;;11.43;5.63;;;;;;;4.79;64.05;99026.75;5059277;27;99580;-88
2023/01/19 04:14:31;;;;;;;7.27;5.70;;;;;;;4.68;64.21;99006.25;5040255;27;97348;-88
2023/01/19 04:16:57;;;;;;;9.37;5.80;;;;;;;4.69;64.77;99015.78;5056499;27;96907;-88
2023/01/19 04:19:23;;;;;;;9.03;6.23;;;;;;;4.74;64.53;99034.66;5040757;27;101143;-86
2023/01/19 04:21:49;;;;;;;8.87;7.07;;;;;;;4.71;64.39;99034.75;5064924;27;101731;-87
2023/01/19 04:24:15;;;;;;;10.70;7.17;;;;;;;4.76;64.80;99046.72;5052720;27;96862;-84
2023/01/19 04:26:41;;;;;;;10.57;7.30;;;;;;;4.67;64.93;99018.41;5036211;27;97298;-87
2023/01/19 04:29:06;;;;;;;8.70;7.07;;;;;;;4.65;64.68;99020.19;5069309;27;97598;-88
2023/01/19 04:31:34;;;;;;;11.40;8.47;;;;;;;4.71;64.70;99026.97;5034801;27;101392;-88
2023/01/19 04:34:00;;;;;;;15.03;8.80;;;;;;;4.77;64.96;99042.41;5057640;27;96797;-88
2023/01/19 04:36:26;;;;;;;12.30;8.80;;;;;;;4.72;65.19;99041.69;5053646;27;97264;-86
2023/01/19 04:38:52;;;;;;;11.80;8.43;;;;;;;4.73;65.22;99048.56;5058356;27;101807;-87
2023/01/19 04:41:17;;;;;;;11.40;8.73;;;;;;;4.75;65.12;99065.84;5041169;27;101595;-87
2023/01/19 04:43:43;;;;;;;13.77;9.97;;;;;;;4.72;65.60;99065.94;5037757;27;97213;-88
2023/01/19 04:46:09;;;;;;;13.70;9.53;;;;;;;4.68;65.44;99060.84;5059673;27;97230;-87
2023/01/19 04:48:35;;;;;;;14.40;9.77;;;;;;;4.64;65.76;99060.09;5053148;27;101531;-88
2023/01/19 04:51:00;;;;;;;14.20;9.80;;;;;;;4.71;65.78;99084.16;5050189;27;101289;-87
2023/01/19 04:53:26;;;;;;;14.57;9.80;;;;;;;4.69;65.70;99085.97;5068922;27;98061;-86
2023/01/19 04:55:53;;;;;;;14.83;9.87;;;;;;;4.72;66.02;99115.31;5053591;27;97490;-87
2023/01/19 04:58:19;;;;;;;15.10;9.93;;;;;;;4.70;66.16;99109.31;5067617;27;98334;-88
2023/01/19 05:00:45;;;;;;;12.23;9.40;;;;;;;4.68;66.19;99112.84;5053023;27;100261;-87
2023/01/19 05:03:10;;;;;;;12.63;9.23;;;;;;;4.72;66.34;99117.06;5049569;27;96782;-88
2023/01/19 05:05:36;;;;;;;13.90;10.37;;;;;;;4.70;65.88;99117.09;5049624;27;97369;-86
2023/01/19 05:08:01;;;;;;;14.73;9.63;;;;;;;4.70;66.23;99126.66;5057923;27;97851;-87
2023/01/19 05:10:27;;;;;;;14.13;9.37;;;;;;;4.74;66.51;99139.53;5038889;27;101470;-88
2023/01/19 05:12:52;;;;;;;13.23;9.23;;;;;;;4.75;66.47;99140.38;5037219;27;97078;-86
2023/01/19 05:15:18;;;;;;;16.57;10.17;;;;;;;4.69;66.42;99138.81;5044247;27;96816;-84
2023/01/19 05:17:44;;;;;;;12.67;8.93;;;;;;;4.72;66.52;99143.94;5053533;27;98403;-87
2023/01/19 05:20:11;;;;;;;11.67;8.03;;;;;;;4.71;66.21;99136.16;5058747;27;101367;-86
2023/01/19 05:22:38;;;;;;;11.90;8.77;;;;;;;4.72;66.19;99130.06;5070743;27;96879;-88
2023/01/19 05:25:04;;;;;;;12.73;8.87;;;;;;;4.72;66.45;99128.31;5061787;27;96765;-87
2023/01/19 05:27:30;;;;;;;11.47;8.10;;;;;;;4.69;66.07;99118.03;5054293;27;101575;-87
2023/01/19 05:29:55;;;;;;;8.63;7.37;;;;;;;4.70;66.20;99124.91;5067361;27;98275;-87
2023/01/19 05:32:21;;;;;;;10.43;7.37;;;;;;;4.62;66.17;99110.44;5054549;27;97358;-87
2023/01/19 05:34:47;;;;;;;8.27;6.57;;;;;;;4.59;66.27;99108.75;5040783;27;97897;-88
2023/01/19 05:37:12;;;;;;;8.20;6.07;;;;;;;4.72;66.18;99127.47;5054312;27;97670;-86
2023/01/19 05:39:38;;;;;;;8.63;5.77;;;;;;;4.56;66.01;99106.25;5048784;27;99805;-88
2023/01/19 05:42:04;;;;;;;8.43;6.23;;;;;;;4.68;65.99;99124.13;5039911;27;96789;-87
2023/01/19 05:44:29;;;;;;;8.47;6.47;;;;;;;4.71;65.82;99130.94;5047169;27;97367;-88
2023/01/19 05:46:55;;;;;;;8.47;6.17;;;;;;;4.72;66.04;99138.72;5051133;27;100128;-88
2023/01/19 05:49:20;;;;;;;7.37;6.03;;;;;;;4.69;66.26;99130.16;5039089;27;101306;-85
2023/01/19 05:51:46;;;;;;;7.83;6.53;;;;;;;4.71;65.99;99136.16;5061651;27;97337;-88
2023/01/19 05:54:14;;;;;;;6.57;5.60;;;;;;;4.58;66.16;99109.66;5055915;27;97105;-87
2023/01/19 05:56:40;;;;;;;8.97;6.60;;;;;;;4.69;66.34;99128.41;5058777;27;98069;-87
2023/01/19 05:59:05;;;;;;;6.53;5.70;;;;;;;4.69;66.18;99136.22;5038396;27;101207;-88
2023/01/19 06:01:33;;;;;;;6.70;5.40;;;;;;;4.61;66.26;99138.19;5054826;27;97274;-87
2023/01/19 06:03:59;;;;;;;7.30;5.63;;;;;;;4.71;65.91;99167.34;5040281;27;96930;-87
2023/01/19 06:06:24;;;;;;;6.27;5.47;;;;;;;4.69;65.93;99170.00;5076894;27;97754;-88
2023/01/19 06:08:50;;;;;;;6.83;4.90;;;;;;;4.69;66.38;99177.81;5057638;27;97262;-87
2023/01/19 06:11:15;;;;;;;6.77;5.10;;;;;;;4.71;66.03;99189.03;5051193;27;97422;-88
2023/01/19 06:13:41;;;;;;;6.00;4.80;;;;;;;4.67;66.16;99179.59;5038943;27;97107;-87
2023/01/19 06:16:07;;;;;;;6.37;5.30;;;;;;;4.71;66.30;99181.22;5051911;27;101338;-88
2023/01/19 06:18:33;;;;;;;6.20;4.83;;;;;;;4.61;66.23;99160.72;5039764;27;101311;-87
2023/01/19 06:21:02;;;;;;;6.10;4.90;;;;;;;4.71;65.98;99180.34;5054739;27;96817;-88
2023/01/19 06:23:32;;;;;;;7.13;5.10;;;;;;;4.70;65.91;99189.06;5038128;27;98230;-87
2023/01/19 06:25:58;;;;;;;5.63;5.03;;;;;;;4.71;65.94;99193.34;5051725;27;101119;-87
2023/01/19 06:28:24;;;;;;;8.23;5.67;;;;;;;4.68;65.96;99185.63;5048931;27;100454;-86
2023/01/19 06:30:50;;;;;;;6.13;4.87;;;;;;;4.69;65.97;99184.75;5051282;27;97154;-89
2023/01/19 06:33:17;;;;;;;6.37;5.17;;;;;;;4.72;66.10;99200.28;5051579;27;97256;-87
2023/01/19 06:35:47;;;;;;;8.73;5.13;;;;;;;4.72;66.05;99208.91;5071826;27;100247;-87
2023/01/19 06:38:13;;;;;;;6.30;5.17;;;;;;;4.71;65.75;99207.22;5058163;27;101841;-88
2023/01/19 06:40:40;;;;;;;6.33;5.20;;;;;;;4.64;65.87;99200.47;5053134;27;97558;-87
2023/01/19 06:43:06;;;;;;;6.10;5.50;;;;;;;4.74;65.86;99225.34;5036857;27;97010;-88
2023/01/19 06:45:32;;;;;;;6.83;5.57;;;;;;;4.59;65.67;99204.94;5037887;27;100459;-87
2023/01/19 06:47:57;;;;;;;7.30;5.57;;;;;;;4.73;65.90;99221.00;5038033;27;100136;-88
2023/01/19 06:50:23;;;;;;;7.00;5.17;;;;;;;4.68;65.34;99209.91;5050948;27;97294;-87
2023/01/19 06:52:49;;;;;;;6.90;5.40;;;;;;;4.73;65.48;99220.16;5045127;27;96923;-88
2023/01/19 06:55:15;;;;;;;9.47;6.33;;;;;;;4.71;65.71;99221.94;5039070;27;101705;-88
2023/01/19 06:57:41;;;;;;;7.27;5.50;;;;;;;4.70;65.27;99220.25;5056835;27;99863;-89
2023/01/19 07:00:07;;;;;;;7.37;5.63;;;;;;;4.72;65.49;99223.66;5047489;27;96753;-87
2023/01/19 07:02:34;;;;;;;8.27;5.67;;;;;;;4.72;65.11;99229.72;5040469;27;96846;-87
2023/01/19 07:04:59;;;;;;;8.23;5.30;;;;;;;4.74;65.18;99232.25;5070905;27;98284;-88
2023/01/19 07:07:25;;;;;;;8.10;5.40;;;;;;;4.63;64.85;99216.97;5069055;27;98589;-88
2023/01/19 07:09:50;;;;;;;8.50;5.77;;;;;;;4.60;64.27;99211.03;5052606;27;96719;-88
2023/01/19 07:12:16;;;;;;;8.70;5.97;;;;;;;4.67;64.67;99223.78;5035469;27;96894;-87
2023/01/19 07:14:42;;;;;;;6.67;5.37;;;;;;;4.72;64.42;99224.53;5067143;27;98404;-87
2023/01/19 07:17:07;;;;;;;8.73;6.00;;;;;;;4.64;64.35;99216.06;5050079;27;100035;-88
2023/01/19 07:19:34;;;;;;;9.63;6.20;;;;;;;4.73;64.49;99231.41;5052454;27;97334;-86
2023/01/19 07:22:01;;;;;;;9.30;6.20;;;;;;;4.75;64.71;99234.84;5064473;27;98123;-86
2023/01/19 07:24:26;;;;;;;13.10;6.10;;;;;;;4.69;64.84;99221.16;5053397;27;98037;-86
2023/01/19 07:26:52;;;;;;;9.00;6.37;;;;;;;4.73;64.17;99226.22;5053235;27;98571;-86
2023/01/19 07:29:17;;;;;;;9.97;6.47;;;;;;;4.65;64.58;99214.31;5029538;27;97205;-88
2023/01/19 07:31:43;;;;;;;9.07;6.70;;;;;;;4.73;64.29;99230.56;5078092;27;96785;-89
2023/01/19 07:34:08;;;;;;;10.33;6.70;;;;;;;4.74;64.21;99238.34;5045959;27;101412;-87
2023/01/19 07:36:34;;;;;;;12.90;6.87;;;;;;;4.72;64.36;99240.13;5067135;27;99123;-86
2023/01/19 07:39:00;;;;;;;10.03;7.70;;;;;;;4.65;64.09;99222.13;5045873;27;98050;-88
2023/01/19 07:41:26;;;;;;;10.33;6.73;;;;;;;4.74;64.46;99233.13;5058382;27;96886;-86
2023/01/19 07:43:52;;;;;;;6.70;5.80;;;;;;;4.66;64.01;99219.50;5036300;27;99938;-88
2023/01/19 07:46:17;;;;;;;13.73;7.37;;;;;;;4.76;64.01;99235.69;5060621;27;98390;-89
2023/01/19 07:48:43;;;;;;;9.23;6.50;;;;;;;4.73;63.81;99235.75;5049897;27;96976;-90
2023/01/19 07:51:11;;;;;;;10.23;6.60;;;;;;;4.61;62.83;99207.50;5072113;27;96803;-87
2023/01/19 07:53:37;;;;;;;11.47;6.67;;;;;;;4.70;62.42;99226.28;5049008;27;100260;-81
2023/01/19 07:56:06;;;;;;;9.43;6.80;;;;;;;4.67;62.55;99222.94;5051011;27;100831;-84
2023/01/19 07:58:31;;;;;;;11.87;6.90;;;;;;;4.70;61.89;99234.09;5049030;27;97126;-88
2023/01/19 08:00:57;;;;;;;11.20;6.67;;;;;;;4.68;62.15;99240.22;5052088;27;97060;-88
2023/01/19 08:03:23;;;;;;;13.73;7.07;;;;;;;4.69;61.58;99239.34;5052285;27;101807;-89
2023/01/19 08:05:50;;;;;;;12.23;6.70;;;;;;;4.68;61.53;99243.72;5035349;27;101374;-84
2023/01/19 08:08:15;;;;;;;10.70;6.83;;;;;;;4.64;61.52;99238.63;5050599;27;97206;-80
2023/01/19 08:10:41;;;;;;;12.03;7.23;;;;;;;4.64;61.11;99241.22;5061262;27;97319;-82
2023/01/19 08:13:07;;;;;;;10.97;7.33;;;;;;;4.64;60.98;99249.88;5036731;27;100927;-83
2023/01/19 08:15:32;;;;;;;12.00;7.53;;;;;;;4.61;60.77;99241.31;5034631;27;100915;-83
2023/01/19 08:18:04;;;;;;;12.77;7.47;;;;;;;4.61;60.39;99252.53;5050391;27;96745;-82
2023/01/19 08:20:30;;;;;;;13.05;8.65;;;;;;;4.67;60.70;99264.53;5037814;27;97263;-84
2023/01/19 08:22:59;;;;;;;14.40;8.03;;;;;;;4.66;60.21;99265.44;5038580;27;101369;-82
2023/01/19 08:25:37;;;;;;;16.47;8.20;;;;;;;4.64;59.80;99267.22;5048465;27;101615;-82
2023/01/19 08:28:04;;;;;;;13.83;8.37;;;;;;;4.64;59.95;99269.81;5044907;27;97503;-81
2023/01/19 08:30:30;;;;;;;14.83;8.07;;;;;;;4.68;59.98;99269.72;5075781;27;97109;-84
2023/01/19 08:33:02;;;;;;;15.93;7.57;;;;;;;4.68;59.79;99266.22;5046497;27;101967;-82
2023/01/19 08:35:30;;;;;;;18.33;8.73;;;;;;;4.66;59.64;99262.84;5049923;27;97260;-83
2023/01/19 08:37:59;;;;;;;11.93;7.50;;;;;;;4.70;59.58;99275.69;5046681;27;97325;-82
2023/01/19 08:40:29;;;;;;;14.10;7.50;;;;;;;4.65;59.15;99274.94;5060315;27;97324;-83
2023/01/19 08:43:04;;;;;;;15.47;7.80;;;;;;;4.68;59.57;99287.03;5044818;27;101580;-80
2023/01/19 08:45:30;;;;;;;13.80;8.30;;;;;;;4.71;59.27;99289.53;5063571;27;98031;-81
2023/01/19 08:47:59;;;;;;;10.83;7.60;;;;;;;4.69;59.01;99276.59;5034981;27;97323;-81
2023/01/19 08:50:26;;;;;;;11.83;7.77;;;;;;;4.72;59.26;99281.72;5062446;27;97438;-83
2023/01/19 08:52:55;;;;;;;16.40;7.90;;;;;;;4.75;59.03;99285.97;5034920;27;101081;-84
2023/01/19 08:55:21;;;;;;;14.57;8.20;;;;;;;4.72;58.58;99275.66;5061971;27;101875;-81
2023/01/19 08:57:51;;;;;;;14.33;9.03;;;;;;;4.71;58.77;99271.34;5046429;27;97231;-84
2023/01/19 09:00:17;;;;;;;17.63;8.47;;;;;;;4.86;59.01;99285.69;5044176;27;97364;-84
2023/01/19 09:02:43;;;;;;;14.50;8.27;;;;;;;4.91;58.86;99286.41;5052188;27;101423;-83
2023/01/19 09:05:08;;;;;;;14.93;8.10;;;;;;;5.07;58.51;99299.88;5051685;27;101375;-84
2023/01/19 09:07:34;;;;;;;12.53;7.50;;;;;;;5.03;58.49;99277.41;5034009;27;97587;-83
2023/01/19 09:09:59;;;;;;;11.27;7.83;;;;;;;5.18;58.08;99298.66;5050539;27;97406;-83
2023/01/19 09:12:25;;;;;;;14.53;7.63;;;;;;;5.34;57.49;99319.88;5064310;27;97731;-84
2023/01/19 09:14:51;;;;;;;14.27;7.63;;;;;;;5.26;57.36;99294.97;5052107;27;101450;-84
2023/01/19 09:17:16;;;;;;;14.17;8.13;;;;;;;5.45;57.25;99314.38;5035293;27;96775;-84
2023/01/19 09:19:42;;;;;;;11.20;6.63;;;;;;;5.54;56.79;99329.72;5039259;27;97894;-83
2023/01/19 09:22:08;;;;;;;10.73;6.57;;;;;;;5.57;57.18;99320.97;5038990;27;101344;-85
2023/01/19 09:24:33;;;;;;;11.00;6.67;;;;;;;5.63;56.43;99318.19;5055020;27;101668;-83
2023/01/19 09:27:00;;;;;;;10.40;6.43;;;;;;;5.70;56.19;99316.25;5061979;27;97294;-84
2023/01/19 09:29:25;;;;;;;9.70;6.13;;;;;;;5.79;55.69;99318.56;5038658;27;97194;-84
2023/01/19 09:31:51;;;;;;;12.73;6.50;;;;;;;5.71;55.55;99292.78;5051857;27;101052;-81
2023/01/19 09:34:16;;;;;;;13.80;6.60;;;;;;;6.00;55.03;99327.53;5036580;27;101052;-86
2023/01/19 09:36:42;;;;;;;11.97;6.53;;;;;;;6.06;54.94;99315.16;5055216;27;97599;-83
2023/01/19 09:39:09;;;;;;;10.50;6.53;;;;;;;6.24;54.63;99321.53;5071795;27;97199;-86
2023/01/19 09:41:37;;;;;;;12.80;5.57;;;;;;;6.34;54.27;99309.03;5041305;27;101249;-80
2023/01/19 09:44:03;;;;;;;10.20;5.90;;;;;;;6.51;53.82;99317.16;5054375;27;101409;-83
2023/01/19 09:46:37;;;;;;;9.70;5.43;;;;;;;6.65;53.31;99314.09;5054861;27;97389;-81
2023/01/19 09:49:30;;;;;;;9.63;5.50;;;;;;;6.69;52.87;99281.81;5053021;27;97295;-82
2023/01/19 09:51:57;;;;;;;13.90;7.00;;;;;;;7.01;52.79;99309.38;5036706;27;101814;-81
2023/01/19 09:54:25;;;;;;;11.43;6.10;;;;;;;7.22;52.59;99307.75;5043577;27;101763;-83
2023/01/19 09:56:52;;;;;;;13.15;6.20;;;;;;;7.26;51.92;99277.16;5054155;27;97874;-83
2023/01/19 09:59:22;;;;;;;11.13;6.30;;;;;;;7.54;51.59;99295.25;5038510;27;96815;-83
2023/01/19 10:01:56;;;;;;;12.70;6.82;;;;;;;7.69;51.22;99293.81;5051736;27;101365;-84
2023/01/19 10:04:29;;;;;;;13.13;6.20;;;;;;;7.82;50.54;99289.81;5055326;27;100929;-81
2023/01/19 10:07:13;;;;;;;12.63;6.20;;;;;;;7.84;50.23;99264.47;5056789;27;96823;-82
2023/01/19 10:09:51;;;;;;;10.32;5.93;;;;;;;7.96;49.64;99283.19;5055287;27;96799;-82
2023/01/19 10:12:41;;;;;;;11.07;5.95;;;;;;;7.97;48.97;99284.88;5037537;27;101974;-81
2023/01/19 10:15:19;;;;;;;11.15;5.80;;;;;;;7.85;48.76;99284.50;5047836;27;101406;-81
2023/01/19 10:17:59;;;;;;;16.73;6.78;;;;;;;7.85;49.66;99273.16;5070729;27;97306;-82
2023/01/19 10:20:29;;;;;;;14.25;5.82;;;;;;;7.99;49.84;99275.22;5037901;27;97135;-82
2023/01/19 10:22:56;;;;;;;11.00;6.18;;;;;;;8.16;49.68;99283.25;5051695;27;101719;-83
2023/01/19 10:25:23;;;;;;;12.30;5.80;;;;;;;8.23;49.35;99289.94;5071546;27;101312;-81
2023/01/19 10:27:48;;;;;;;11.48;5.95;;;;;;;8.27;49.09;99288.06;5075795;27;97155;-82
2023/01/19 10:30:21;;;;;;;14.95;8.60;;;;;;;8.35;48.83;99286.81;5055832;27;97518;-82
2023/01/19 10:32:47;;;;;;;11.68;5.93;;;;;;;8.37;49.08;99281.50;5054756;27;99854;-84
2023/01/19 10:35:23;;;;;;;11.95;5.60;;;;;;;8.41;48.08;99285.75;5050497;27;101334;-83
2023/01/19 10:37:52;;;;;;;9.05;5.65;;;;;;;8.35;48.39;99284.22;5037919;27;97193;-82
2023/01/19 10:40:24;;;;;;;12.60;5.90;;;;;;;8.35;48.23;99294.66;5045409;27;96917;-82
2023/01/19 10:42:49;;;;;;;8.43;4.80;;;;;;;8.33;48.67;99290.41;5080970;27;98001;-82
2023/01/19 10:45:20;;;;;;;9.45;5.53;;;;;;;8.25;48.47;99275.03;5070232;27;97974;-81
2023/01/19 10:47:47;;;;;;;10.93;5.90;;;;;;;8.26;48.25;99281.97;5079119;27;97333;-81
2023/01/19 10:50:33;;;;;;;13.30;6.30;;;;;;;8.31;48.36;99294.84;5063063;27;97028;-82
2023/01/19 10:53:02;;;;;;;11.50;5.82;;;;;;;8.34;48.30;99295.56;5052746;27;100991;-82
2023/01/19 10:55:33;;;;;;;9.02;5.82;;;;;;;8.39;47.40;99290.19;5046781;27;102127;-82
2023/01/19 10:57:59;;;;;;;10.20;5.65;;;;;;;8.31;47.80;99290.47;5045269;27;96799;-82
2023/01/19 11:00:37;;;;;;;10.65;5.25;;;;;;;8.30;48.05;99288.75;5052354;27;97824;-82
2023/01/19 11:03:22;;;;;;;12.18;5.50;;;;;;;8.21;47.79;99293.53;5040278;27;101451;-83
2023/01/19 11:05:48;;;;;;;7.70;5.10;;;;;;;8.07;47.54;99270.56;5088726;27;101543;-84
2023/01/19 11:08:29;;;;;;;8.95;5.80;;;;;;;8.15;47.31;99276.31;5069852;27;96726;-84
2023/01/19 11:11:01;;;;;;;14.27;4.88;;;;;;;8.07;47.58;99283.63;5070384;27;96941;-82
2023/01/19 11:13:27;;;;;;;13.43;4.93;;;;;;;7.97;47.70;99277.94;5032728;27;101038;-83
2023/01/19 11:15:56;;;;;;;10.35;5.10;;;;;;;7.91;47.75;99278.13;5035517;27;100014;-84
2023/01/19 11:18:36;;;;;;;11.57;6.03;;;;;;;7.82;48.19;99257.59;5040096;27;97035;-81
2023/01/19 11:21:05;;;;;;;19.80;7.47;;;;;;;7.81;48.38;99275.06;5051262;27;97496;-85
2023/01/19 11:23:41;;;;;;;14.38;6.97;;;;;;;7.81;48.13;99285.50;5047097;27;98179;-84
2023/01/19 11:26:14;;;;;;;15.68;6.53;;;;;;;7.78;48.36;99280.41;5048846;27;100160;-84
2023/01/19 11:28:45;;;;;;;14.15;5.93;;;;;;;7.61;48.24;99254.94;5052551;27;98408;-85
2023/01/19 11:31:13;;;;;;;14.93;5.93;;;;;;;7.61;48.02;99256.69;5080570;27;97743;-84
2023/01/19 11:33:45;;;;;;;10.25;6.35;;;;;;;7.71;48.42;99271.13;5053277;27;101881;-82
2023/01/19 11:36:15;;;;;;;14.90;7.05;;;;;;;7.66;48.72;99267.81;5069056;27;97850;-83
2023/01/19 11:38:45;;;;;;;15.93;6.53;;;;;;;7.60;48.39;99274.13;5051448;27;96841;-82
2023/01/19 11:41:17;;;;;;;15.55;6.63;;;;;;;7.55;48.43;99268.22;5055365;27;97514;-82
2023/01/19 11:43:43;;;;;;;11.57;5.75;;;;;;;7.47;48.26;99265.88;5053265;27;99277;-82
2023/01/19 11:46:11;;;;;;;16.77;6.90;;;;;;;7.48;48.42;99264.16;5049803;27;101258;-81